createdAt,value
2019-01-29T00:02:36.563Z,22.7
2019-01-29T00:05:42.525Z,22.6
2019-01-29T00:08:48.637Z,22.6
2019-01-29T00:11:54.596Z,22.6
2019-01-29T00:15:00.608Z,22.6
2019-01-29T00:18:06.546Z,22.6
2019-01-29T00:21:12.492Z,22.5
2019-01-29T00:24:18.473Z,22.5
2019-01-29T00:27:24.396Z,22.4
2019-01-29T00:30:33.367Z,22.4
2019-01-29T00:33:39.340Z,22.4
2019-01-29T00:36:45.245Z,22.3
2019-01-29T00:39:51.198Z,22.2
2019-01-29T00:42:57.166Z,22.2
2019-01-29T00:46:03.162Z,22.1
2019-01-29T00:49:12.267Z,22.1
2019-01-29T00:52:18.194Z,22.1
2019-01-29T00:55:24.125Z,22
2019-01-29T00:58:30.131Z,22
2019-01-29T01:01:36.073Z,21.9
2019-01-29T01:04:42.080Z,21.9
2019-01-29T01:07:48.031Z,21.8
2019-01-29T01:10:53.952Z,21.8
2019-01-29T01:13:59.862Z,21.8
2019-01-29T01:17:05.869Z,21.8
2019-01-29T01:20:11.830Z,21.8
2019-01-29T01:23:17.841Z,21.8
2019-01-29T01:26:23.782Z,21.8
2019-01-29T01:29:29.748Z,21.7
2019-01-29T01:32:35.725Z,21.7
2019-01-29T01:35:41.575Z,21.8
2019-01-29T01:38:47.515Z,21.8
2019-01-29T01:41:53.478Z,21.8
2019-01-29T01:44:59.385Z,21.8
2019-01-29T01:48:05.291Z,21.8
2019-01-29T01:51:11.306Z,21.8
2019-01-29T01:54:17.379Z,21.8
2019-01-29T01:57:23.302Z,21.8
2019-01-29T02:00:29.233Z,21.8
2019-01-29T02:03:35.212Z,21.8
2019-01-29T02:06:41.073Z,21.8
2019-01-29T02:09:47.005Z,21.8
2019-01-29T02:12:55.470Z,21.8
2019-01-29T02:16:01.448Z,21.8
2019-01-29T02:19:07.439Z,21.9
2019-01-29T02:22:13.369Z,21.9
2019-01-29T02:25:19.369Z,21.9
2019-01-29T02:28:25.237Z,21.9
2019-01-29T02:31:31.178Z,22
2019-01-29T02:34:37.057Z,22
2019-01-29T02:37:42.992Z,22
2019-01-29T02:40:49.066Z,22
2019-01-29T02:43:55.032Z,22
2019-01-29T02:47:01.046Z,22
2019-01-29T02:50:07.003Z,22.1
2019-01-29T02:53:18.210Z,22.1
2019-01-29T02:56:24.401Z,22.1
2019-01-29T02:59:30.338Z,22.1
2019-01-29T03:02:36.261Z,22.1
2019-01-29T03:05:42.184Z,22.1
2019-01-29T03:08:48.130Z,22.1
2019-01-29T03:11:54.194Z,22.2
2019-01-29T03:15:00.266Z,22.2
2019-01-29T03:18:06.337Z,22.2
2019-01-29T03:21:12.336Z,22.2
2019-01-29T03:24:18.336Z,22.2
2019-01-29T03:27:24.263Z,22.2
2019-01-29T03:30:30.283Z,22.2
2019-01-29T03:33:36.508Z,22.2
2019-01-29T03:36:42.483Z,22.3
2019-01-29T03:39:48.400Z,22.3
2019-01-29T03:42:54.308Z,22.3
2019-01-29T03:46:00.270Z,22.3
2019-01-29T03:49:06.284Z,22.4
2019-01-29T03:52:12.240Z,22.4
2019-01-29T03:55:18.243Z,22.5
2019-01-29T03:58:24.161Z,22.5
2019-01-29T04:01:30.097Z,22.6
2019-01-29T04:04:36.021Z,22.6
2019-01-29T04:07:42.033Z,22.7
2019-01-29T04:10:48.223Z,22.7
2019-01-29T04:13:54.461Z,22.8
2019-01-29T04:17:00.540Z,22.8
2019-01-29T04:20:06.519Z,22.9
2019-01-29T04:23:12.387Z,22.9
2019-01-29T04:26:18.444Z,22.9
2019-01-29T04:29:24.455Z,22.9
2019-01-29T04:32:30.502Z,23
2019-01-29T04:35:38.709Z,23
2019-01-29T04:38:47.562Z,23
2019-01-29T04:41:53.486Z,23.1
2019-01-29T04:44:59.588Z,23.1
2019-01-29T04:48:05.784Z,23.1
2019-01-29T04:51:11.714Z,23.1
2019-01-29T04:54:17.619Z,23.2
2019-01-29T04:57:23.559Z,23.2
2019-01-29T05:00:29.499Z,23.2
2019-01-29T05:03:35.398Z,23.2
2019-01-29T05:06:41.425Z,23.3
2019-01-29T05:09:47.385Z,23.3
2019-01-29T05:12:53.269Z,23.3
2019-01-29T05:15:59.352Z,23.3
2019-01-29T05:19:05.293Z,23.4
2019-01-29T05:22:11.318Z,23.4
2019-01-29T05:25:17.425Z,23.4
2019-01-29T05:28:23.477Z,23.4
2019-01-29T05:31:29.401Z,23.4
2019-01-29T05:34:35.412Z,23.5
2019-01-29T05:37:41.360Z,23.5
2019-01-29T05:40:47.215Z,23.5
2019-01-29T05:43:53.142Z,23.5
2019-01-29T05:46:59.080Z,23.5
2019-01-29T05:50:05.098Z,23.5
2019-01-29T05:53:11.100Z,23.5
2019-01-29T05:56:17.106Z,23.5
2019-01-29T05:59:23.102Z,23.5
2019-01-29T06:02:29.034Z,23.6
2019-01-29T06:05:35.005Z,23.6
2019-01-29T06:08:41.055Z,23.6
2019-01-29T06:11:46.908Z,23.7
2019-01-29T06:14:52.870Z,23.7
2019-01-29T06:17:58.874Z,23.7
2019-01-29T06:21:04.899Z,23.7
2019-01-29T06:24:10.991Z,23.8
2019-01-29T06:27:26.966Z,23.8
2019-01-29T06:30:33.118Z,23.9
2019-01-29T06:33:39.060Z,23.9
2019-01-29T06:36:44.981Z,24
2019-01-29T06:39:55.886Z,24
2019-01-29T06:43:01.938Z,24.1
2019-01-29T06:46:07.980Z,24.2
2019-01-29T06:49:14.003Z,24.1
2019-01-29T06:52:20.181Z,24.1
2019-01-29T06:55:26.270Z,24.2
2019-01-29T06:58:37.363Z,24.3
2019-01-29T07:01:43.327Z,24.3
2019-01-29T07:04:49.294Z,24.4
2019-01-29T07:07:55.262Z,24.4
2019-01-29T07:11:01.300Z,24.5
2019-01-29T07:14:07.269Z,24.5
2019-01-29T07:17:13.237Z,24.5
2019-01-29T07:20:19.282Z,24.5
2019-01-29T07:23:25.507Z,24.6
2019-01-29T07:26:31.580Z,24.6
2019-01-29T07:29:37.654Z,24.6
2019-01-29T07:32:45.038Z,24.7
2019-01-29T07:35:51.023Z,24.7
2019-01-29T07:38:57.037Z,24.7
2019-01-29T07:42:03.253Z,24.8
2019-01-29T07:45:09.285Z,24.9
2019-01-29T07:48:15.586Z,24.9
2019-01-29T07:51:21.692Z,25
2019-01-29T07:54:33.153Z,25.1
2019-01-29T07:57:40.334Z,25.1
2019-01-29T08:00:46.294Z,25.1
2019-01-29T08:03:52.256Z,25.2
2019-01-29T08:06:58.257Z,25.2
2019-01-29T08:10:04.174Z,25.3
2019-01-29T08:13:10.104Z,25.3
2019-01-29T08:16:16.060Z,25.3
2019-01-29T08:19:22.096Z,25.4
2019-01-29T08:22:28.020Z,25.4
2019-01-29T08:25:33.871Z,25.4
2019-01-29T08:28:48.953Z,25.5
2019-01-29T08:31:55.039Z,25.5
2019-01-29T08:35:00.984Z,25.5
2019-01-29T08:38:07.127Z,25.5
2019-01-29T08:41:13.097Z,25.5
2019-01-29T08:44:19.374Z,25.5
2019-01-29T08:47:25.465Z,25.6
2019-01-29T08:50:31.700Z,25.6
2019-01-29T08:53:38.716Z,25.5
2019-01-29T08:56:44.660Z,25.6
2019-01-29T08:59:50.813Z,25.6
2019-01-29T09:02:56.745Z,25.7
2019-01-29T09:06:02.811Z,25.8
2019-01-29T09:09:08.865Z,25.8
2019-01-29T09:12:14.998Z,25.9
2019-01-29T09:15:21.131Z,25.9
2019-01-29T09:18:28.204Z,25.9
2019-01-29T09:21:34.396Z,25.8
2019-01-29T09:24:40.500Z,25.8
2019-01-29T09:27:46.612Z,25.7
2019-01-29T09:30:52.682Z,25.7
2019-01-29T09:33:58.687Z,25.8
2019-01-29T09:37:04.902Z,25.9
2019-01-29T09:40:10.886Z,25.9
2019-01-29T09:43:16.952Z,25.9
2019-01-29T09:46:23.029Z,25.8
2019-01-29T09:49:30.075Z,25.8
2019-01-29T09:52:38.495Z,25.8
2019-01-29T09:55:44.590Z,25.9
2019-01-29T09:58:50.567Z,25.9
2019-01-29T10:01:56.544Z,25.9
2019-01-29T10:05:02.529Z,25.8
2019-01-29T10:08:08.401Z,25.8
2019-01-29T10:11:14.446Z,25.8
2019-01-29T10:14:20.380Z,25.9
2019-01-29T10:17:26.285Z,25.9
2019-01-29T10:20:32.342Z,26
2019-01-29T10:23:38.515Z,25.9
2019-01-29T10:26:44.360Z,25.9
2019-01-29T10:29:50.345Z,26
2019-01-29T10:32:57.332Z,26
2019-01-29T10:36:03.311Z,26
2019-01-29T10:39:09.334Z,26.1
2019-01-29T10:42:15.327Z,26.1
2019-01-29T10:45:21.353Z,26.1
2019-01-29T10:48:27.415Z,26
2019-01-29T10:51:33.366Z,26
2019-01-29T10:54:39.574Z,26.1
2019-01-29T10:57:45.644Z,26.1
2019-01-29T11:00:51.604Z,26.1
2019-01-29T11:03:57.664Z,26.2
2019-01-29T11:07:07.669Z,26.2
2019-01-29T11:10:13.609Z,26.2
2019-01-29T11:13:19.540Z,26.3
2019-01-29T11:16:25.589Z,26.3
2019-01-29T11:19:31.649Z,26.3
2019-01-29T11:22:39.372Z,26.3
2019-01-29T11:25:45.440Z,26.3
2019-01-29T11:29:00.069Z,26.3
2019-01-29T11:32:06.176Z,26.3
2019-01-29T11:35:12.255Z,26.3
2019-01-29T11:38:18.368Z,26.3
2019-01-29T11:41:25.481Z,26.3
2019-01-29T11:44:31.467Z,26.3
2019-01-29T11:47:37.536Z,26.3
2019-01-29T11:50:46.094Z,26.3
2019-01-29T11:53:52.098Z,26.2
2019-01-29T11:56:58.125Z,26.2
2019-01-29T12:00:04.199Z,26.3
2019-01-29T12:03:10.051Z,26.3
2019-01-29T12:06:16.003Z,26.4
2019-01-29T12:09:21.961Z,26.4
2019-01-29T12:12:28.113Z,26.4
2019-01-29T12:15:34.143Z,26.4
2019-01-29T12:18:40.221Z,26.4
2019-01-29T12:21:46.259Z,26.3
2019-01-29T12:24:52.131Z,26.4
2019-01-29T12:27:58.272Z,26.3
2019-01-29T12:31:04.408Z,26.3
2019-01-29T12:34:10.380Z,26.3
2019-01-29T12:37:16.444Z,26.2
2019-01-29T12:40:22.313Z,26.2
2019-01-29T12:43:28.288Z,26.2
2019-01-29T12:46:34.487Z,26.2
2019-01-29T12:49:41.571Z,26.2
2019-01-29T12:52:47.652Z,26.2
2019-01-29T12:55:54.587Z,26.2
2019-01-29T12:59:03.714Z,26.2
2019-01-29T13:02:09.797Z,26.2
2019-01-29T13:05:15.868Z,26.3
2019-01-29T13:08:22.011Z,26.3
2019-01-29T13:11:28.241Z,26.3
2019-01-29T13:14:35.340Z,26.3
2019-01-29T13:17:41.391Z,26.3
2019-01-29T13:20:47.316Z,26.3
2019-01-29T13:23:53.307Z,26.3
2019-01-29T13:26:59.232Z,26.3
2019-01-29T13:30:05.200Z,26.3
2019-01-29T13:33:14.049Z,26.3
2019-01-29T13:36:19.937Z,26.2
2019-01-29T13:39:25.951Z,26.3
2019-01-29T13:42:31.920Z,26.2
2019-01-29T13:45:37.984Z,26.2
2019-01-29T13:48:43.869Z,26.2
2019-01-29T13:51:49.845Z,26.2
2019-01-29T13:54:55.849Z,26.2
2019-01-29T13:58:02.114Z,26.2
2019-01-29T14:01:08.277Z,26.2
2019-01-29T14:04:14.273Z,26.1
2019-01-29T14:07:20.263Z,26.2
2019-01-29T14:10:26.279Z,26.2
2019-01-29T14:13:32.200Z,26.2
2019-01-29T14:16:38.179Z,26.1
2019-01-29T14:19:44.185Z,26.2
2019-01-29T14:22:50.198Z,26.2
2019-01-29T14:25:56.097Z,26.2
2019-01-29T14:29:02.063Z,26.2
2019-01-29T14:32:08.114Z,26.2
2019-01-29T14:35:14.239Z,26.2
2019-01-29T14:38:20.448Z,26.2
2019-01-29T14:41:26.447Z,26.2
2019-01-29T14:44:32.510Z,26.2
2019-01-29T14:47:38.449Z,26.1
2019-01-29T14:50:46.637Z,26.2
2019-01-29T14:53:52.690Z,26.1
2019-01-29T14:56:59.910Z,26.1
2019-01-29T15:00:05.963Z,26.1
2019-01-29T15:03:12.157Z,26.1
2019-01-29T15:06:18.089Z,26.1
2019-01-29T15:09:33.880Z,26.1
2019-01-29T15:12:40.998Z,26.1
2019-01-29T15:15:47.230Z,26.1
2019-01-29T15:18:53.389Z,26
2019-01-29T15:21:59.442Z,26
2019-01-29T15:25:05.356Z,26
2019-01-29T15:28:11.532Z,26
2019-01-29T15:31:17.459Z,26
2019-01-29T15:34:23.429Z,26
2019-01-29T15:37:29.349Z,25.9
2019-01-29T15:40:35.490Z,25.9
2019-01-29T15:43:41.473Z,25.9
2019-01-29T15:46:47.588Z,25.9
2019-01-29T15:49:53.713Z,25.9
2019-01-29T15:52:59.857Z,26
2019-01-29T15:56:05.784Z,26.1
2019-01-29T15:59:11.738Z,26
2019-01-29T16:02:17.857Z,26
2019-01-29T16:05:24.039Z,26
2019-01-29T16:08:30.119Z,25.9
2019-01-29T16:11:36.095Z,25.9
2019-01-29T16:14:43.718Z,25.9
2019-01-29T16:17:49.961Z,25.9
2019-01-29T16:20:55.973Z,26
2019-01-29T16:24:02.142Z,25.9
2019-01-29T16:27:08.084Z,25.9
2019-01-29T16:30:14.017Z,25.9
2019-01-29T16:33:19.971Z,25.9
2019-01-29T16:36:25.953Z,25.8
2019-01-29T16:39:31.887Z,25.8
2019-01-29T16:42:37.861Z,25.9
2019-01-29T16:45:43.818Z,25.8
2019-01-29T16:48:49.807Z,25.8
2019-01-29T16:51:55.770Z,25.8
2019-01-29T16:55:01.743Z,25.8
2019-01-29T16:58:07.682Z,25.8
2019-01-29T17:01:13.750Z,25.8
2019-01-29T17:04:19.713Z,25.8
2019-01-29T17:07:29.302Z,25.8
2019-01-29T17:10:35.214Z,25.7
2019-01-29T17:13:44.090Z,25.7
2019-01-29T17:16:49.996Z,25.6
2019-01-29T17:19:57.942Z,25.7
2019-01-29T17:23:03.965Z,25.7
2019-01-29T17:26:09.971Z,25.8
2019-01-29T17:29:16.013Z,25.7
2019-01-29T17:32:30.186Z,25.6
2019-01-29T17:35:36.475Z,25.6
2019-01-29T17:38:44.573Z,25.6
2019-01-29T17:41:50.683Z,25.5
2019-01-29T17:44:56.646Z,25.5
2019-01-29T17:48:02.653Z,25.5
2019-01-29T17:51:08.614Z,25.5
2019-01-29T17:54:14.513Z,25.5
2019-01-29T17:57:20.445Z,25.5
2019-01-29T18:00:26.380Z,25.4
2019-01-29T18:03:32.293Z,25.4
2019-01-29T18:06:38.349Z,25.3
2019-01-29T18:09:44.553Z,25.3
2019-01-29T18:12:50.471Z,25.3
2019-01-29T18:15:56.418Z,25.3
2019-01-29T18:19:02.330Z,25.2
2019-01-29T18:22:08.297Z,25.2
2019-01-29T18:25:14.305Z,25.2
2019-01-29T18:28:20.170Z,25.1
2019-01-29T18:31:26.104Z,25.1
2019-01-29T18:34:31.995Z,25.1
2019-01-29T18:37:38.109Z,25
2019-01-29T18:40:46.919Z,25
2019-01-29T18:43:53.001Z,25
2019-01-29T18:46:58.933Z,25
2019-01-29T18:50:04.956Z,24.9
2019-01-29T18:53:10.889Z,24.9
2019-01-29T18:56:16.898Z,24.8
2019-01-29T18:59:25.862Z,24.8
2019-01-29T19:02:31.924Z,24.7
2019-01-29T19:05:37.871Z,24.7
2019-01-29T19:08:43.897Z,24.6
2019-01-29T19:11:49.911Z,24.5
2019-01-29T19:14:58.658Z,24.5
2019-01-29T19:18:04.658Z,24.4
2019-01-29T19:21:10.593Z,24.4
2019-01-29T19:24:16.510Z,24.3
2019-01-29T19:27:22.612Z,24.3
2019-01-29T19:30:28.568Z,24.3
2019-01-29T19:33:34.585Z,24.2
2019-01-29T19:36:40.611Z,24.2
2019-01-29T19:39:46.510Z,24.1
2019-01-29T19:42:52.475Z,24.1
2019-01-29T19:45:58.416Z,24.1
2019-01-29T19:49:04.402Z,24.1
2019-01-29T19:52:10.402Z,24.1
2019-01-29T19:55:16.357Z,24.1
2019-01-29T19:58:31.723Z,24.1
2019-01-29T20:01:38.051Z,24.1
2019-01-29T20:04:43.969Z,24
2019-01-29T20:07:49.994Z,24
2019-01-29T20:10:56.079Z,23.9
2019-01-29T20:14:02.103Z,23.9
2019-01-29T20:17:10.813Z,23.9
2019-01-29T20:20:19.021Z,23.8
2019-01-29T20:23:25.025Z,23.8
2019-01-29T20:26:30.941Z,23.7
2019-01-29T20:29:37.053Z,23.7
2019-01-29T20:32:52.773Z,23.7
2019-01-29T20:35:59.415Z,23.7
2019-01-29T20:39:05.431Z,23.6
2019-01-29T20:42:11.476Z,23.6
2019-01-29T20:45:17.420Z,23.5
2019-01-29T20:48:23.337Z,23.5
2019-01-29T20:51:29.305Z,23.5
2019-01-29T20:54:35.186Z,23.5
2019-01-29T20:57:41.227Z,23.4
2019-01-29T21:00:47.212Z,23.4
2019-01-29T21:03:53.168Z,23.4
2019-01-29T21:06:59.140Z,23.4
2019-01-29T21:10:05.090Z,23.3
2019-01-29T21:13:11.100Z,23.3
2019-01-29T21:16:17.002Z,23.2
2019-01-29T21:19:22.934Z,23.2
2019-01-29T21:22:28.879Z,23.2
2019-01-29T21:25:34.869Z,23.2
2019-01-29T21:28:40.794Z,23.2
2019-01-29T21:31:46.728Z,23.1
2019-01-29T21:34:52.689Z,23.1
2019-01-29T21:37:59.640Z,23.1
2019-01-29T21:41:05.653Z,23.1
2019-01-29T21:44:14.460Z,23.1
2019-01-29T21:47:20.382Z,23
2019-01-29T21:50:26.301Z,23
2019-01-29T21:53:32.379Z,23
2019-01-29T21:56:38.270Z,23
2019-01-29T21:59:47.276Z,23
2019-01-29T22:02:53.242Z,22.9
2019-01-29T22:05:59.270Z,22.9
2019-01-29T22:09:05.241Z,22.9
2019-01-29T22:12:11.194Z,22.9
2019-01-29T22:15:17.142Z,22.9
2019-01-29T22:18:23.111Z,22.9
2019-01-29T22:21:29.178Z,22.8
2019-01-29T22:24:35.138Z,22.8
2019-01-29T22:27:41.032Z,22.8
2019-01-29T22:30:47.062Z,22.8
2019-01-29T22:33:52.961Z,22.8
2019-01-29T22:36:58.897Z,22.7
2019-01-29T22:40:04.956Z,22.7
2019-01-29T22:43:10.896Z,22.7
2019-01-29T22:46:16.876Z,22.7
2019-01-29T22:49:22.847Z,22.7
2019-01-29T22:52:28.791Z,22.7
2019-01-29T22:55:34.742Z,22.6
2019-01-29T22:58:40.703Z,22.6
2019-01-29T23:01:46.676Z,22.6
2019-01-29T23:04:52.546Z,22.6
2019-01-29T23:07:58.515Z,22.6
2019-01-29T23:11:04.649Z,22.5
2019-01-29T23:14:13.375Z,22.5
2019-01-29T23:17:19.336Z,22.5
2019-01-29T23:20:25.306Z,22.5
2019-01-29T23:23:31.232Z,22.5
2019-01-29T23:26:37.190Z,22.5
2019-01-29T23:29:43.869Z,22.5
2019-01-29T23:32:49.772Z,22.5
2019-01-29T23:35:55.801Z,22.5
2019-01-29T23:39:01.864Z,22.5
2019-01-29T23:42:07.830Z,22.4
2019-01-29T23:45:13.723Z,22.4
2019-01-29T23:48:19.736Z,22.4
2019-01-29T23:51:25.693Z,22.4
2019-01-29T23:54:31.611Z,22.4
2019-01-29T23:57:37.586Z,22.4
